createdAt,value
2019-04-22T00:01:24.787Z,45.23
2019-04-22T00:03:56.525Z,46.43
2019-04-22T00:06:44.279Z,45.60
2019-04-22T00:09:19.214Z,45.33
2019-04-22T00:11:59.302Z,46.90
2019-04-22T00:14:11.910Z,48.10
2019-04-22T00:16:51.830Z,46.00
2019-04-22T00:21:55.757Z,47.23
2019-04-22T00:24:27.602Z,48.40
2019-04-22T00:26:59.958Z,47.10
2019-04-22T00:32:11.385Z,47.87
2019-04-22T00:34:48.557Z,47.30
2019-04-22T00:37:26.739Z,47.40
2019-04-22T00:39:55.077Z,46.17
2019-04-22T00:42:28.839Z,47.07
2019-04-22T00:45:00.722Z,48.80
2019-04-22T00:47:29.223Z,46.70
2019-04-22T00:50:14.482Z,49.83
2019-04-22T00:52:28.256Z,46.83
2019-04-22T00:55:06.106Z,48.10
2019-04-22T00:57:35.178Z,46.83
2019-04-22T01:00:05.619Z,45.27
2019-04-22T01:02:34.239Z,46.67
2019-04-22T01:05:07.699Z,45.30
2019-04-22T01:07:40.794Z,46.20
2019-04-22T01:10:11.732Z,48.00
2019-04-22T01:12:41.435Z,48.63
2019-04-22T01:15:17.459Z,47.70
2019-04-22T01:17:45.394Z,48.00
2019-04-22T01:20:41.779Z,46.67
2019-04-22T01:22:46.163Z,49.07
2019-04-22T01:25:14.369Z,47.37
2019-04-22T01:27:40.231Z,47.87
2019-04-22T01:30:10.908Z,48.27
2019-04-22T01:32:35.006Z,48.50
2019-04-22T01:35:14.364Z,48.17
2019-04-22T01:37:50.863Z,48.50
2019-04-22T01:40:33.172Z,48.83
2019-04-22T01:43:07.003Z,50.83
2019-04-22T01:45:35.668Z,49.03
2019-04-22T01:48:02.898Z,49.27
2019-04-22T01:50:39.850Z,50.23
2019-04-22T01:53:11.776Z,49.30
2019-04-22T01:55:38.840Z,50.57
2019-04-22T01:58:08.406Z,51.53
2019-04-22T02:00:51.487Z,49.00
2019-04-22T02:03:17.769Z,52.63
2019-04-22T02:05:44.164Z,51.40
2019-04-22T02:08:25.511Z,48.50
2019-04-22T02:10:54.824Z,50.60
2019-04-22T02:13:25.141Z,51.80
2019-04-22T02:15:52.699Z,50.90
2019-04-22T02:18:26.288Z,53.80
2019-04-22T02:20:49.587Z,52.47
2019-04-22T02:26:09.347Z,54.47
2019-04-22T02:28:45.787Z,54.03
2019-04-22T02:44:08.160Z,56.03
2019-04-22T02:46:40.737Z,54.47
2019-04-22T02:56:31.487Z,53.70
2019-04-22T02:59:04.233Z,53.60
2019-04-22T03:01:29.880Z,52.93
2019-04-22T03:04:06.615Z,52.53
2019-04-22T03:09:10.136Z,52.30
2019-04-22T03:11:42.037Z,51.97
2019-04-22T03:16:39.358Z,52.10
2019-04-22T03:19:17.745Z,48.77
2019-04-22T03:24:20.249Z,50.97
2019-04-22T03:29:39.118Z,49.57
2019-04-22T03:35:09.668Z,47.77
2019-04-22T03:39:38.491Z,49.90
2019-04-22T03:49:37.199Z,48.13
2019-04-22T03:52:16.293Z,48.27
2019-04-22T03:54:39.155Z,48.57
2019-04-22T03:59:41.527Z,49.30
2019-04-22T04:02:16.168Z,48.23
2019-04-22T04:09:40.610Z,47.67
2019-04-22T04:14:54.895Z,46.53
2019-04-22T04:22:30.459Z,45.90
2019-04-22T04:25:24.772Z,44.70
2019-04-22T04:27:43.542Z,45.90
2019-04-22T04:30:05.656Z,44.73
2019-04-22T04:37:40.975Z,46.43
2019-04-22T04:40:05.135Z,44.40
2019-04-22T04:45:29.826Z,43.33
2019-04-22T04:47:41.357Z,44.77
2019-04-22T04:53:01.109Z,42.30
2019-04-22T04:55:18.033Z,42.63
2019-04-22T04:57:52.487Z,44.50
2019-04-22T05:02:44.776Z,41.30
2019-04-22T05:05:12.570Z,40.93
2019-04-22T05:07:40.407Z,42.77
2019-04-22T05:12:53.091Z,40.73
2019-04-22T05:25:19.041Z,37.90
2019-04-22T05:27:47.365Z,36.50
2019-04-22T05:32:52.266Z,36.33
2019-04-22T05:35:20.756Z,36.30
2019-04-22T05:40:25.920Z,36.27
2019-04-22T05:42:49.671Z,34.43
2019-04-22T05:47:59.276Z,34.53
2019-04-22T05:50:22.888Z,34.10
2019-04-22T05:52:57.316Z,33.97
2019-04-22T05:55:36.309Z,30.90
2019-04-22T05:58:02.820Z,32.70
2019-04-22T06:03:21.093Z,31.60
2019-04-22T06:05:43.863Z,33.90
2019-04-22T06:08:10.618Z,31.40
2019-04-22T06:10:50.399Z,30.83
2019-04-22T06:13:12.480Z,30.30
2019-04-22T06:15:40.352Z,31.40
2019-04-22T06:18:25.456Z,30.00
2019-04-22T06:21:01.397Z,30.13
2019-04-22T06:23:25.690Z,30.60
2019-04-22T06:26:04.966Z,30.60
2019-04-22T06:33:29.530Z,27.33
2019-04-22T06:36:03.402Z,30.00
2019-04-22T06:41:09.306Z,29.70
2019-04-22T06:43:34.947Z,27.00
2019-04-22T06:46:13.049Z,27.10
2019-04-22T06:48:37.417Z,28.43
2019-04-22T06:51:06.819Z,27.23
2019-04-22T06:56:11.422Z,26.90
2019-04-22T06:58:39.906Z,25.60
2019-04-22T07:01:19.621Z,25.30
2019-04-22T07:06:23.994Z,26.20
2019-04-22T07:11:11.432Z,25.40
2019-04-22T07:13:51.748Z,24.70
2019-04-22T07:18:50.734Z,24.17
2019-04-22T07:21:22.203Z,22.33
2019-04-22T07:24:02.762Z,22.87
2019-04-22T07:26:21.945Z,22.33
2019-04-22T07:28:55.116Z,21.37
2019-04-22T07:31:30.662Z,22.50
2019-04-22T07:33:58.295Z,20.67
2019-04-22T07:39:05.738Z,21.37
2019-04-22T07:41:31.809Z,20.30
2019-04-22T07:51:36.377Z,20.63
2019-04-22T07:54:06.509Z,21.00
2019-04-22T07:56:40.896Z,20.83
2019-04-22T07:59:13.943Z,21.77
2019-04-22T08:01:44.824Z,20.87
2019-04-22T08:04:24.242Z,20.87
2019-04-22T08:09:24.577Z,20.60
2019-04-22T08:11:52.466Z,19.90
2019-04-22T08:14:24.256Z,19.50
2019-04-22T08:16:51.602Z,19.70
2019-04-22T08:19:33.139Z,19.70
2019-04-22T08:21:52.167Z,19.37
2019-04-22T08:24:30.570Z,20.23
2019-04-22T08:26:58.161Z,19.67
2019-04-22T08:29:40.208Z,18.67
2019-04-22T08:32:01.196Z,17.60
2019-04-22T08:34:31.008Z,18.27
2019-04-22T08:39:33.209Z,17.80
2019-04-22T08:42:16.235Z,17.30
2019-04-22T08:45:05.828Z,18.90
2019-04-22T08:49:50.503Z,16.50
2019-04-22T08:52:16.319Z,20.17
2019-04-22T08:54:49.049Z,17.10
2019-04-22T08:57:24.191Z,19.10
2019-04-22T08:59:50.055Z,16.77
2019-04-22T09:02:19.824Z,17.17
2019-04-22T09:04:52.144Z,16.30
2019-04-22T09:09:50.681Z,15.50
2019-04-22T09:12:34.655Z,15.60
2019-04-22T09:14:49.444Z,15.50
2019-04-22T09:17:40.319Z,15.97
2019-04-22T09:20:03.272Z,14.23
2019-04-22T09:22:26.334Z,14.20
2019-04-22T09:24:57.245Z,13.63
2019-04-22T09:30:01.655Z,14.37
2019-04-22T09:32:34.425Z,13.30
2019-04-22T09:35:04.375Z,13.60
2019-04-22T09:37:39.319Z,12.63
2019-04-22T09:40:13.946Z,12.87
2019-04-22T09:42:39.673Z,12.43
2019-04-22T09:45:21.407Z,12.20
2019-04-22T09:47:53.654Z,12.17
2019-04-22T09:50:15.344Z,13.10
2019-04-22T09:52:51.462Z,11.53
2019-04-22T09:55:19.728Z,11.90
2019-04-22T09:57:47.096Z,12.77
2019-04-22T10:00:14.756Z,11.80
2019-04-22T10:02:55.859Z,12.80
2019-04-22T10:05:23.833Z,11.43
2019-04-22T10:07:55.689Z,10.80
2019-04-22T10:10:28.162Z,10.43
2019-04-22T10:13:00.248Z,13.53
2019-04-22T10:15:25.225Z,11.10
2019-04-22T10:17:57.954Z,11.17
2019-04-22T10:20:36.258Z,9.77
2019-04-22T10:22:57.469Z,8.63
2019-04-22T10:25:36.403Z,8.60
2019-04-22T10:28:08.954Z,9.00
2019-04-22T10:30:46.231Z,8.80
2019-04-22T10:33:04.620Z,8.73
2019-04-22T10:35:19.188Z,9.47
2019-04-22T10:37:46.401Z,8.27
2019-04-22T10:40:21.755Z,9.13
2019-04-22T10:42:51.571Z,9.07
2019-04-22T10:45:21.965Z,8.77
2019-04-22T10:47:52.252Z,9.00
2019-04-22T10:50:25.098Z,8.73
2019-04-22T10:52:55.262Z,7.80
2019-04-22T10:55:25.420Z,8.93
2019-04-22T10:57:55.245Z,8.77
2019-04-22T11:00:25.079Z,8.90
2019-04-22T11:02:55.909Z,9.50
2019-04-22T11:05:28.134Z,7.63
2019-04-22T11:08:02.767Z,8.50
2019-04-22T11:10:42.544Z,8.50
2019-04-22T11:13:02.932Z,8.37
2019-04-22T11:15:32.934Z,7.40
2019-04-22T11:18:02.985Z,7.13
2019-04-22T11:20:33.720Z,7.60
2019-04-22T11:23:04.577Z,7.63
2019-04-22T11:25:36.023Z,7.13
2019-04-22T11:28:07.193Z,7.80
2019-04-22T11:30:38.635Z,7.73
2019-04-22T11:33:08.736Z,7.53
2019-04-22T11:35:39.609Z,8.07
2019-04-22T11:38:10.675Z,7.83
2019-04-22T11:40:47.495Z,7.83
2019-04-22T11:43:12.408Z,7.37
2019-04-22T11:45:42.616Z,7.27
2019-04-22T11:48:13.247Z,7.90
2019-04-22T11:50:43.964Z,9.17
2019-04-22T11:53:13.817Z,7.33
2019-04-22T11:55:44.600Z,7.57
2019-04-22T11:58:14.886Z,7.40
2019-04-22T12:00:45.143Z,7.40
2019-04-22T12:03:14.842Z,7.47
2019-04-22T12:05:45.975Z,8.10
2019-04-22T12:08:15.645Z,7.00
2019-04-22T12:10:51.598Z,7.70
2019-04-22T12:13:17.781Z,7.90
2019-04-22T12:15:49.018Z,7.60
2019-04-22T12:18:19.541Z,7.30
2019-04-22T12:20:49.152Z,7.00
2019-04-22T12:23:18.993Z,7.43
2019-04-22T12:25:57.113Z,7.03
2019-04-22T12:28:21.150Z,6.33
2019-04-22T12:30:51.239Z,7.13
2019-04-22T12:33:21.253Z,6.40
2019-04-22T12:35:50.832Z,6.47
2019-04-22T12:38:21.981Z,7.00
2019-04-22T12:40:57.418Z,7.83
2019-04-22T12:43:25.698Z,7.30
2019-04-22T12:45:54.435Z,7.10
2019-04-22T12:48:25.421Z,7.00
2019-04-22T12:50:58.037Z,7.17
2019-04-22T12:53:28.063Z,6.93
2019-04-22T12:55:59.337Z,7.50
2019-04-22T12:58:29.827Z,7.07
2019-04-22T13:01:01.046Z,7.10
2019-04-22T13:03:31.968Z,6.70
2019-04-22T13:06:01.772Z,6.80
2019-04-22T13:08:31.723Z,6.10
2019-04-22T13:11:08.725Z,7.10
2019-04-22T13:13:34.438Z,7.00
2019-04-22T13:16:04.707Z,7.40
2019-04-22T13:18:42.039Z,6.97
2019-04-22T13:21:06.543Z,7.30
2019-04-22T13:23:36.918Z,8.77
2019-04-22T13:26:07.440Z,9.23
2019-04-22T13:28:37.025Z,8.90
2019-04-22T13:31:07.776Z,8.00
2019-04-22T13:33:38.770Z,8.43
2019-04-22T13:36:08.365Z,8.57
2019-04-22T13:38:38.739Z,7.90
2019-04-22T13:41:21.102Z,7.20
2019-04-22T13:43:41.012Z,8.40
2019-04-22T13:46:12.289Z,7.57
2019-04-22T13:49:05.970Z,8.83
2019-04-22T13:51:48.848Z,9.03
2019-04-22T13:54:42.386Z,7.60
2019-04-22T13:56:38.691Z,8.70
2019-04-22T13:58:58.993Z,9.00
2019-04-22T14:01:20.556Z,8.20
2019-04-22T14:03:58.809Z,8.60
2019-04-22T14:06:29.129Z,7.00
2019-04-22T14:08:59.129Z,8.00
2019-04-22T14:11:39.064Z,8.20
2019-04-22T14:14:00.862Z,7.50
2019-04-22T14:16:31.149Z,6.50
2019-04-22T14:19:02.026Z,6.60
2019-04-22T14:21:32.658Z,5.90
2019-04-22T14:24:02.749Z,6.20
2019-04-22T14:26:46.850Z,5.50
2019-04-22T14:29:04.129Z,5.60
2019-04-22T14:31:34.200Z,5.90
2019-04-22T14:34:05.872Z,6.27
2019-04-22T14:36:35.303Z,5.40
2019-04-22T14:39:08.153Z,6.60
2019-04-22T14:41:55.396Z,5.83
2019-04-22T14:47:10.845Z,5.27
2019-04-22T14:49:37.097Z,4.93
2019-04-22T14:52:05.282Z,5.70
2019-04-22T14:54:33.809Z,5.37
2019-04-22T14:56:46.728Z,5.07
2019-04-22T14:59:16.719Z,5.27
2019-04-22T15:01:47.574Z,5.27
2019-04-22T15:04:17.535Z,4.70
2019-04-22T15:06:50.119Z,5.23
2019-04-22T15:09:19.702Z,4.97
2019-04-22T15:11:58.208Z,5.70
2019-04-22T15:14:21.598Z,5.37
2019-04-22T15:16:55.045Z,5.73
2019-04-22T15:19:27.590Z,5.37
2019-04-22T15:21:58.646Z,5.03
2019-04-22T15:24:29.435Z,4.73
2019-04-22T15:27:00.651Z,4.93
2019-04-22T15:29:31.593Z,5.30
2019-04-22T15:32:01.427Z,4.43
2019-04-22T15:34:32.561Z,5.13
2019-04-22T15:37:02.403Z,5.00
2019-04-22T15:39:31.990Z,4.43
2019-04-22T15:42:11.602Z,4.90
2019-04-22T15:44:33.840Z,4.17
2019-04-22T15:47:04.877Z,4.13
2019-04-22T15:49:35.741Z,5.17
2019-04-22T15:52:06.619Z,4.57
2019-04-22T15:54:37.648Z,4.70
2019-04-22T15:57:08.696Z,4.30
2019-04-22T15:59:54.002Z,4.73
2019-04-22T16:02:10.074Z,3.83
2019-04-22T16:04:42.373Z,4.07
2019-04-22T16:07:12.816Z,4.30
2019-04-22T16:09:43.518Z,3.97
2019-04-22T16:12:21.555Z,4.17
2019-04-22T16:14:49.461Z,3.93
2019-04-22T16:17:16.800Z,3.77
2019-04-22T16:19:46.687Z,3.63
2019-04-22T16:22:19.085Z,4.03
2019-04-22T16:25:07.010Z,3.90
2019-04-22T16:27:36.784Z,4.00
2019-04-22T16:30:07.682Z,4.27
2019-04-22T16:32:37.423Z,4.00
2019-04-22T16:35:08.743Z,3.70
2019-04-22T16:37:38.960Z,3.63
2019-04-22T16:40:09.323Z,4.40
2019-04-22T16:42:45.826Z,3.47
2019-04-22T16:45:11.629Z,3.93
2019-04-22T16:47:41.808Z,4.00
2019-04-22T16:50:11.626Z,3.60
2019-04-22T16:52:41.832Z,3.43
2019-04-22T16:55:12.824Z,3.97
2019-04-22T16:57:43.982Z,3.50
2019-04-22T17:00:16.409Z,3.60
2019-04-22T17:03:06.787Z,4.47
2019-04-22T17:05:53.735Z,3.43
2019-04-22T17:08:24.606Z,3.50
2019-04-22T17:10:55.658Z,3.70
2019-04-22T17:13:30.294Z,4.07
2019-04-22T17:16:00.499Z,4.20
2019-04-22T17:18:29.025Z,3.50
2019-04-22T17:20:58.792Z,3.60
2019-04-22T17:23:29.558Z,3.80
2019-04-22T17:26:00.668Z,3.43
2019-04-22T17:28:31.308Z,3.60
2019-04-22T17:31:01.914Z,3.83
2019-04-22T17:33:32.790Z,4.10
2019-04-22T17:36:03.327Z,3.70
2019-04-22T17:38:42.754Z,3.63
2019-04-22T17:41:16.200Z,3.53
2019-04-22T17:44:02.137Z,4.13
2019-04-22T17:46:30.500Z,3.60
2019-04-22T17:49:06.046Z,4.53
2019-04-22T17:51:36.439Z,4.10
2019-04-22T17:54:08.275Z,3.97
2019-04-22T17:56:42.232Z,4.70
2019-04-22T17:59:12.263Z,3.53
2019-04-22T18:01:40.199Z,4.13
2019-04-22T18:03:57.399Z,4.13
2019-04-22T18:06:48.953Z,4.50
2019-04-22T18:09:12.844Z,4.20
2019-04-22T18:11:48.261Z,4.20
2019-04-22T18:14:44.893Z,4.40
2019-04-22T18:16:45.902Z,4.10
2019-04-22T18:19:19.343Z,3.63
2019-04-22T18:21:46.205Z,4.10
2019-04-22T18:24:11.911Z,4.00
2019-04-22T18:26:55.633Z,4.27
2019-04-22T18:29:25.522Z,4.20
2019-04-22T18:31:48.985Z,3.80
2019-04-22T18:34:23.632Z,4.60
2019-04-22T18:36:58.945Z,4.20
2019-04-22T18:39:40.524Z,4.47
2019-04-22T18:42:03.148Z,4.20
2019-04-22T18:44:42.354Z,4.30
2019-04-22T18:47:10.554Z,4.23
2019-04-22T18:49:41.783Z,4.50
2019-04-22T18:52:21.354Z,4.10
2019-04-22T18:55:02.571Z,3.97
2019-04-22T18:57:35.790Z,4.90
2019-04-22T18:59:53.863Z,3.50
2019-04-22T19:02:24.694Z,4.10
2019-04-22T19:05:01.074Z,3.50
2019-04-22T19:07:49.757Z,4.07
2019-04-22T19:10:17.316Z,3.63
2019-04-22T19:12:58.552Z,4.87
2019-04-22T19:15:19.168Z,3.90
2019-04-22T19:17:54.376Z,3.90
2019-04-22T19:20:27.191Z,3.83
2019-04-22T19:22:57.090Z,4.03
2019-04-22T19:25:17.383Z,3.87
2019-04-22T19:27:53.601Z,3.83
2019-04-22T19:30:30.247Z,3.30
2019-04-22T19:33:06.338Z,3.90
2019-04-22T19:35:30.202Z,5.10
2019-04-22T19:37:58.731Z,3.57
2019-04-22T19:40:47.819Z,3.87
2019-04-22T19:43:09.806Z,3.47
2019-04-22T19:45:44.371Z,3.47
2019-04-22T19:48:21.832Z,3.27
2019-04-22T19:50:54.342Z,3.53
2019-04-22T19:53:22.687Z,3.17
2019-04-22T19:55:46.525Z,3.30
2019-04-22T19:58:22.001Z,3.50
2019-04-22T20:01:02.366Z,3.00
2019-04-22T20:03:49.795Z,3.40
2019-04-22T20:06:33.901Z,3.17
2019-04-22T20:09:05.717Z,3.80
2019-04-22T20:11:38.707Z,3.60
2019-04-22T20:14:12.049Z,3.10
2019-04-22T20:16:37.519Z,3.30
2019-04-22T20:19:19.129Z,3.10
2019-04-22T20:21:49.362Z,3.50
2019-04-22T20:24:05.720Z,3.87
2019-04-22T20:26:51.231Z,4.10
2019-04-22T20:29:25.747Z,3.33
2019-04-22T20:31:54.579Z,3.40
2019-04-22T20:34:24.079Z,3.23
2019-04-22T20:37:04.710Z,3.47
2019-04-22T20:39:28.381Z,3.40
2019-04-22T20:41:57.646Z,2.97
2019-04-22T20:44:30.174Z,3.50
2019-04-22T20:46:56.132Z,3.87
2019-04-22T20:49:31.075Z,3.50
2019-04-22T20:52:23.587Z,3.03
2019-04-22T20:54:32.561Z,3.07
2019-04-22T20:56:55.329Z,2.93
2019-04-22T20:59:34.631Z,3.10
2019-04-22T21:02:05.156Z,2.97
2019-04-22T21:04:27.785Z,2.83
2019-04-22T21:07:03.740Z,3.60
2019-04-22T21:09:38.170Z,2.80
2019-04-22T21:12:07.689Z,4.27
2019-04-22T21:14:44.076Z,3.40
2019-04-22T21:17:13.618Z,2.90
2019-04-22T21:19:54.651Z,2.83
2019-04-22T21:22:16.003Z,3.23
2019-04-22T21:24:46.065Z,3.33
2019-04-22T21:27:23.732Z,2.97
2019-04-22T21:29:48.348Z,3.80
2019-04-22T21:32:24.021Z,3.50
2019-04-22T21:34:59.639Z,3.10
2019-04-22T21:37:25.187Z,3.03
2019-04-22T21:39:51.879Z,2.63
2019-04-22T21:42:26.551Z,4.27
2019-04-22T21:44:55.747Z,2.90
2019-04-22T21:47:35.326Z,3.37
2019-04-22T21:50:21.354Z,3.00
2019-04-22T21:52:35.838Z,3.53
2019-04-22T21:55:10.527Z,2.83
2019-04-22T21:57:57.350Z,2.93
2019-04-22T22:00:36.626Z,3.10
2019-04-22T22:02:58.541Z,3.70
2019-04-22T22:05:27.985Z,4.73
2019-04-22T22:07:53.413Z,3.00
2019-04-22T22:10:34.325Z,3.50
2019-04-22T22:13:06.684Z,3.07
2019-04-22T22:15:40.335Z,3.40
2019-04-22T22:18:05.188Z,3.80
2019-04-22T22:20:43.221Z,3.60
2019-04-22T22:23:22.250Z,3.43
2019-04-22T22:25:38.864Z,3.77
2019-04-22T22:28:31.393Z,3.40
2019-04-22T22:33:18.754Z,5.00
2019-04-22T22:35:45.560Z,3.53
2019-04-22T22:38:18.753Z,3.67
2019-04-22T22:40:34.024Z,3.67
2019-04-22T22:43:11.958Z,3.60
2019-04-22T22:45:39.714Z,4.23
2019-04-22T22:48:28.206Z,4.20
2019-04-22T22:50:50.741Z,3.93
2019-04-22T22:53:34.032Z,4.03
2019-04-22T22:55:57.700Z,3.30
2019-04-22T22:58:28.045Z,3.87
2019-04-22T23:00:57.912Z,4.30
2019-04-22T23:03:46.041Z,3.77
2019-04-22T23:06:04.774Z,4.00
2019-04-22T23:08:44.715Z,3.93
2019-04-22T23:11:05.623Z,3.77
2019-04-22T23:13:38.956Z,4.13
2019-04-22T23:16:00.873Z,4.27
2019-04-22T23:18:19.749Z,4.13
2019-04-22T23:20:51.806Z,4.00
2019-04-22T23:23:37.902Z,4.00
2019-04-22T23:26:10.395Z,4.10
2019-04-22T23:28:43.091Z,4.40
2019-04-22T23:31:09.574Z,4.07
2019-04-22T23:33:54.671Z,3.47
2019-04-22T23:36:30.540Z,4.60
2019-04-22T23:39:10.950Z,5.17
2019-04-22T23:41:50.963Z,4.50
2019-04-22T23:44:17.781Z,4.03
2019-04-22T23:46:55.348Z,4.23
2019-04-22T23:49:26.659Z,4.27
2019-04-22T23:52:09.032Z,4.10
2019-04-22T23:54:39.051Z,4.00
2019-04-22T23:57:00.263Z,3.90
2019-04-22T23:59:44.919Z,4.20
